sensor_id;sensor_type;location;lat;lon;timestamp;pressure;altitude;pressure_sealevel;temperature;humidity
51313;BME280;37397;53.226;10.400;2022-10-16T00:01:10;100583.09;;;16.17;70.58
51313;BME280;37397;53.226;10.400;2022-10-16T00:03:39;100582.06;;;16.15;70.55
51313;BME280;37397;53.226;10.400;2022-10-16T00:06:07;100583.13;;;16.12;70.69
51313;BME280;37397;53.226;10.400;2022-10-16T00:08:35;100581.78;;;16.13;70.60
51313;BME280;37397;53.226;10.400;2022-10-16T00:11:04;100573.69;;;16.11;70.62
51313;BME280;37397;53.226;10.400;2022-10-16T00:13:33;100580.75;;;16.10;70.53
51313;BME280;37397;53.226;10.400;2022-10-16T00:16:01;100573.44;;;16.03;70.72
51313;BME280;37397;53.226;10.400;2022-10-16T00:18:28;100593.31;;;16.07;70.59
51313;BME280;37397;53.226;10.400;2022-10-16T00:21:17;100587.84;;;16.03;70.43
51313;BME280;37397;53.226;10.400;2022-10-16T00:23:44;100593.59;;;16.03;70.70
51313;BME280;37397;53.226;10.400;2022-10-16T00:26:13;100594.91;;;16.02;70.82
51313;BME280;37397;53.226;10.400;2022-10-16T00:28:50;100598.56;;;15.97;70.77
51313;BME280;37397;53.226;10.400;2022-10-16T00:31:19;100592.03;;;15.97;70.87
51313;BME280;37397;53.226;10.400;2022-10-16T00:33:47;100594.91;;;15.97;70.90
51313;BME280;37397;53.226;10.400;2022-10-16T00:36:17;100601.19;;;15.95;70.94
51313;BME280;37397;53.226;10.400;2022-10-16T00:38:44;100597.28;;;15.93;70.97
51313;BME280;37397;53.226;10.400;2022-10-16T00:41:14;100605.38;;;15.94;70.87
51313;BME280;37397;53.226;10.400;2022-10-16T00:43:49;100607.22;;;15.92;71.05
51313;BME280;37397;53.226;10.400;2022-10-16T00:46:22;100608.53;;;15.91;70.96
51313;BME280;37397;53.226;10.400;2022-10-16T00:51:25;100606.19;;;15.89;70.91
51313;BME280;37397;53.226;10.400;2022-10-16T00:53:55;100597.78;;;15.85;71.02
51313;BME280;37397;53.226;10.400;2022-10-16T00:56:22;100604.34;;;15.86;71.17
51313;BME280;37397;53.226;10.400;2022-10-16T00:58:49;100598.59;;;15.80;71.04
51313;BME280;37397;53.226;10.400;2022-10-16T01:01:15;100591.50;;;15.76;71.00
51313;BME280;37397;53.226;10.400;2022-10-16T01:03:42;100606.44;;;15.80;71.12
51313;BME280;37397;53.226;10.400;2022-10-16T01:06:21;100606.44;;;15.80;70.75
51313;BME280;37397;53.226;10.400;2022-10-16T01:09:01;100610.63;;;15.79;71.13
51313;BME280;37397;53.226;10.400;2022-10-16T01:11:38;100600.13;;;15.76;71.27
51313;BME280;37397;53.226;10.400;2022-10-16T01:14:27;100612.66;;;15.73;70.95
51313;BME280;37397;53.226;10.400;2022-10-16T01:17:04;100612.66;;;15.73;70.95
51313;BME280;37397;53.226;10.400;2022-10-16T01:19:50;100617.91;;;15.68;70.90
51313;BME280;37397;53.226;10.400;2022-10-16T01:22:25;100620.78;;;15.68;70.99
51313;BME280;37397;53.226;10.400;2022-10-16T01:24:59;100628.63;;;15.68;71.06
51313;BME280;37397;53.226;10.400;2022-10-16T01:27:34;100634.94;;;15.66;71.09
51313;BME280;37397;53.226;10.400;2022-10-16T01:30:08;100629.69;;;15.65;71.02
51313;BME280;37397;53.226;10.400;2022-10-16T01:35:17;100635.19;;;15.57;70.98
51313;BME280;37397;53.226;10.400;2022-10-16T01:37:50;100640.38;;;15.53;71.21
51313;BME280;37397;53.226;10.400;2022-10-16T01:40:19;100627.06;;;15.56;71.29
51313;BME280;37397;53.226;10.400;2022-10-16T01:43:01;100628.88;;;15.53;71.00
51313;BME280;37397;53.226;10.400;2022-10-16T01:45:31;100640.38;;;15.53;71.12
51313;BME280;37397;53.226;10.400;2022-10-16T01:48:00;100635.97;;;15.52;71.33
51313;BME280;37397;53.226;10.400;2022-10-16T01:50:32;100635.69;;;15.50;71.28
51313;BME280;37397;53.226;10.400;2022-10-16T01:53:02;100628.38;;;15.49;71.21
51313;BME280;37397;53.226;10.400;2022-10-16T01:55:33;100628.38;;;15.49;71.12
51313;BME280;37397;53.226;10.400;2022-10-16T01:58:04;100624.19;;;15.44;71.27
51313;BME280;37397;53.226;10.400;2022-10-16T02:00:33;100638.03;;;15.46;71.28
51313;BME280;37397;53.226;10.400;2022-10-16T02:03:03;100630.69;;;15.45;71.04
51313;BME280;37397;53.226;10.400;2022-10-16T02:05:36;100639.06;;;15.43;71.12
51313;BME280;37397;53.226;10.400;2022-10-16T02:08:04;100644.56;;;15.41;71.10
51313;BME280;37397;53.226;10.400;2022-10-16T02:10:31;100642.72;;;15.38;71.25
51313;BME280;37397;53.226;10.400;2022-10-16T02:13:22;100639.56;;;15.36;71.18
51313;BME280;37397;53.226;10.400;2022-10-16T02:15:50;100635.91;;;15.35;71.34
51313;BME280;37397;53.226;10.400;2022-10-16T02:18:20;100642.44;;;15.36;71.38
51313;BME280;37397;53.226;10.400;2022-10-16T02:21:17;100638.25;;;15.31;70.98
51313;BME280;37397;53.226;10.400;2022-10-16T02:23:50;100644.53;;;15.29;71.29
51313;BME280;37397;53.226;10.400;2022-10-16T02:26:26;100645.84;;;15.28;71.38
51313;BME280;37397;53.226;10.400;2022-10-16T02:29:00;100642.41;;;15.24;71.22
51313;BME280;37397;53.226;10.400;2022-10-16T02:31:33;100641.66;;;15.24;71.26
51313;BME280;37397;53.226;10.400;2022-10-16T02:34:03;100645.28;;;15.24;71.29
51313;BME280;37397;53.226;10.400;2022-10-16T02:36:32;100642.41;;;15.24;71.24
51313;BME280;37397;53.226;10.400;2022-10-16T02:39:00;100645.03;;;15.22;71.25
51313;BME280;37397;53.226;10.400;2022-10-16T02:41:27;100631.97;;;15.21;71.10
51313;BME280;37397;53.226;10.400;2022-10-16T02:43:54;100631.44;;;15.17;71.21
51313;BME280;37397;53.226;10.400;2022-10-16T02:46:21;100638.75;;;15.18;71.20
51313;BME280;37397;53.226;10.400;2022-10-16T02:48:48;100625.66;;;15.11;71.06
51313;BME280;37397;53.226;10.400;2022-10-16T02:51:14;100652.09;;;15.16;71.26
51313;BME280;37397;53.226;10.400;2022-10-16T02:53:41;100653.63;;;15.11;71.26
51313;BME280;37397;53.226;10.400;2022-10-16T02:56:07;100649.72;;;15.14;71.22
51313;BME280;37397;53.226;10.400;2022-10-16T02:58:34;100651.03;;;15.13;71.23
51313;BME280;37397;53.226;10.400;2022-10-16T03:01:01;100655.72;;;15.10;71.34
51313;BME280;37397;53.226;10.400;2022-10-16T03:03:28;100656.50;;;15.11;71.27
51313;BME280;37397;53.226;10.400;2022-10-16T03:05:54;100659.13;;;15.09;71.16
51313;BME280;37397;53.226;10.400;2022-10-16T03:08:21;100658.31;;;15.08;71.37
51313;BME280;37397;53.226;10.400;2022-10-16T03:10:50;100639.78;;;15.04;71.02
51313;BME280;37397;53.226;10.400;2022-10-16T03:13:17;100637.94;;;15.06;71.10
51313;BME280;37397;53.226;10.400;2022-10-16T03:15:46;100645.53;;;15.04;71.13
51313;BME280;37397;53.226;10.400;2022-10-16T03:18:13;100636.09;;;15.03;71.13
51313;BME280;37397;53.226;10.400;2022-10-16T03:20:40;100640.81;;;15.01;71.27
51313;BME280;37397;53.226;10.400;2022-10-16T03:23:06;100648.09;;;15.02;71.14
51313;BME280;37397;53.226;10.400;2022-10-16T03:25:34;100632.66;;;14.93;71.27
51313;BME280;37397;53.226;10.400;2022-10-16T03:28:01;100638.69;;;14.95;71.28
51313;BME280;37397;53.226;10.400;2022-10-16T03:30:28;100642.63;;;14.98;71.13
51313;BME280;37397;53.226;10.400;2022-10-16T03:32:54;100640.00;;;14.94;71.18
51313;BME280;37397;53.226;10.400;2022-10-16T03:35:22;100647.03;;;14.93;71.11
51313;BME280;37397;53.226;10.400;2022-10-16T03:37:49;100642.63;;;14.92;71.14
51313;BME280;37397;53.226;10.400;2022-10-16T03:40:17;100640.78;;;14.89;71.16
51313;BME280;37397;53.226;10.400;2022-10-16T03:42:43;100649.13;;;14.93;71.10
51313;BME280;37397;53.226;10.400;2022-10-16T03:45:11;100649.66;;;14.91;71.20
51313;BME280;37397;53.226;10.400;2022-10-16T03:47:37;100642.31;;;14.90;71.22
51313;BME280;37397;53.226;10.400;2022-10-16T03:50:04;100642.06;;;14.88;71.09
51313;BME280;37397;53.226;10.400;2022-10-16T03:52:31;100646.22;;;14.87;71.24
51313;BME280;37397;53.226;10.400;2022-10-16T03:54:58;100632.13;;;14.84;71.25
51313;BME280;37397;53.226;10.400;2022-10-16T03:57:25;100638.94;;;14.86;71.09
51313;BME280;37397;53.226;10.400;2022-10-16T03:59:52;100642.84;;;14.83;71.21
51313;BME280;37397;53.226;10.400;2022-10-16T04:02:18;100643.88;;;14.80;71.25
51313;BME280;37397;53.226;10.400;2022-10-16T04:04:45;100652.47;;;14.80;71.24
51313;BME280;37397;53.226;10.400;2022-10-16T04:07:11;100658.47;;;14.82;71.24
51313;BME280;37397;53.226;10.400;2022-10-16T04:09:38;100656.38;;;14.77;71.33
51313;BME280;37397;53.226;10.400;2022-10-16T04:12:04;100656.38;;;14.77;71.21
51313;BME280;37397;53.226;10.400;2022-10-16T04:14:31;100657.97;;;14.78;71.26
51313;BME280;37397;53.226;10.400;2022-10-16T04:16:57;100660.53;;;14.76;71.30
51313;BME280;37397;53.226;10.400;2022-10-16T04:19:24;100661.34;;;14.76;71.42
51313;BME280;37397;53.226;10.400;2022-10-16T04:21:51;100664.72;;;14.75;71.33
51313;BME280;37397;53.226;10.400;2022-10-16T04:24:18;100662.06;;;14.66;71.38
51313;BME280;37397;53.226;10.400;2022-10-16T04:26:44;100676.22;;;14.75;71.39
51313;BME280;37397;53.226;10.400;2022-10-16T04:29:11;100670.94;;;14.68;71.28
51313;BME280;37397;53.226;10.400;2022-10-16T04:31:37;100680.13;;;14.72;71.25
51313;BME280;37397;53.226;10.400;2022-10-16T04:34:04;100678.28;;;14.69;71.19
51313;BME280;37397;53.226;10.400;2022-10-16T04:36:30;100675.34;;;14.63;71.29
51313;BME280;37397;53.226;10.400;2022-10-16T04:38:57;100690.78;;;14.66;71.33
51313;BME280;37397;53.226;10.400;2022-10-16T04:41:23;100703.56;;;14.65;71.26
51313;BME280;37397;53.226;10.400;2022-10-16T04:43:50;100708.03;;;14.66;71.38
51313;BME280;37397;53.226;10.400;2022-10-16T04:46:16;100703.31;;;14.63;71.28
51313;BME280;37397;53.226;10.400;2022-10-16T04:48:43;100711.66;;;14.61;71.20
51313;BME280;37397;53.226;10.400;2022-10-16T04:51:09;100713.44;;;14.58;71.36
51313;BME280;37397;53.226;10.400;2022-10-16T04:53:36;100712.38;;;14.55;71.33
51313;BME280;37397;53.226;10.400;2022-10-16T04:56:03;100708.47;;;14.58;71.27
51313;BME280;37397;53.226;10.400;2022-10-16T04:58:30;100706.91;;;14.57;71.38
51313;BME280;37397;53.226;10.400;2022-10-16T05:00:56;100702.97;;;14.55;71.44
51313;BME280;37397;53.226;10.400;2022-10-16T05:03:23;100702.19;;;14.54;71.46
51313;BME280;37397;53.226;10.400;2022-10-16T05:05:49;100706.34;;;14.53;71.37
51313;BME280;37397;53.226;10.400;2022-10-16T05:08:16;100723.88;;;14.55;71.43
51313;BME280;37397;53.226;10.400;2022-10-16T05:10:43;100710.53;;;14.52;71.42
51313;BME280;37397;53.226;10.400;2022-10-16T05:13:11;100724.38;;;14.54;71.56
51313;BME280;37397;53.226;10.400;2022-10-16T05:15:38;100718.63;;;14.54;71.38
51313;BME280;37397;53.226;10.400;2022-10-16T05:18:04;100713.66;;;14.54;71.58
51313;BME280;37397;53.226;10.400;2022-10-16T05:20:31;100716.28;;;14.52;71.58
51313;BME280;37397;53.226;10.400;2022-10-16T05:22:57;100715.44;;;14.46;71.67
51313;BME280;37397;53.226;10.400;2022-10-16T05:25:24;100721.72;;;14.50;71.56
51313;BME280;37397;53.226;10.400;2022-10-16T05:27:51;100719.59;;;14.45;71.69
51313;BME280;37397;53.226;10.400;2022-10-16T05:30:18;100720.94;;;14.50;71.34
51313;BME280;37397;53.226;10.400;2022-10-16T05:32:49;100723.03;;;14.49;71.51
51313;BME280;37397;53.226;10.400;2022-10-16T05:35:17;100732.94;;;14.48;71.42
51313;BME280;37397;53.226;10.400;2022-10-16T05:37:44;100731.09;;;14.45;71.62
51313;BME280;37397;53.226;10.400;2022-10-16T05:40:12;100748.59;;;14.47;71.68
51313;BME280;37397;53.226;10.400;2022-10-16T05:42:40;100748.59;;;14.47;71.65
51313;BME280;37397;53.226;10.400;2022-10-16T05:45:09;100748.06;;;14.43;71.56
51313;BME280;37397;53.226;10.400;2022-10-16T05:47:36;100748.31;;;14.45;71.51
51313;BME280;37397;53.226;10.400;2022-10-16T05:50:03;100734.72;;;14.40;71.61
51313;BME280;37397;53.226;10.400;2022-10-16T05:52:30;100737.06;;;14.41;71.62
51313;BME280;37397;53.226;10.400;2022-10-16T05:54:57;100731.28;;;14.36;71.58
51313;BME280;37397;53.226;10.400;2022-10-16T05:57:23;100736.00;;;14.39;71.66
51313;BME280;37397;53.226;10.400;2022-10-16T05:59:50;100747.47;;;14.39;71.66
51313;BME280;37397;53.226;10.400;2022-10-16T06:02:17;100746.19;;;14.40;71.57
51313;BME280;37397;53.226;10.400;2022-10-16T06:04:43;100732.09;;;14.36;71.69
51313;BME280;37397;53.226;10.400;2022-10-16T06:07:10;100737.03;;;14.36;71.77
51313;BME280;37397;53.226;10.400;2022-10-16T06:09:37;100740.19;;;14.38;71.67
51313;BME280;37397;53.226;10.400;2022-10-16T06:12:03;100738.59;;;14.37;71.79
51313;BME280;37397;53.226;10.400;2022-10-16T06:14:30;100740.69;;;14.36;71.62
51313;BME280;37397;53.226;10.400;2022-10-16T06:16:57;100754.25;;;14.36;71.79
51313;BME280;37397;53.226;10.400;2022-10-16T06:19:23;100755.56;;;14.35;71.67
51313;BME280;37397;53.226;10.400;2022-10-16T06:21:50;100750.84;;;14.32;71.65
51313;BME280;37397;53.226;10.400;2022-10-16T06:24:16;100754.75;;;14.34;71.74
51313;BME280;37397;53.226;10.400;2022-10-16T06:26:43;100747.97;;;14.32;71.74
51313;BME280;37397;53.226;10.400;2022-10-16T06:29:09;100751.59;;;14.27;71.64
51313;BME280;37397;53.226;10.400;2022-10-16T06:31:36;100761.00;;;14.33;71.74
51313;BME280;37397;53.226;10.400;2022-10-16T06:34:03;100760.47;;;14.29;71.75
51313;BME280;37397;53.226;10.400;2022-10-16T06:36:31;100757.88;;;14.31;71.62
51313;BME280;37397;53.226;10.400;2022-10-16T06:38:58;100770.66;;;14.30;71.70
51313;BME280;37397;53.226;10.400;2022-10-16T06:41:25;100762.75;;;14.25;71.78
51313;BME280;37397;53.226;10.400;2022-10-16T06:43:51;100779.28;;;14.30;71.83
51313;BME280;37397;53.226;10.400;2022-10-16T06:46:21;100779.28;;;14.30;71.88
51313;BME280;37397;53.226;10.400;2022-10-16T06:48:48;100780.56;;;14.29;71.93
51313;BME280;37397;53.226;10.400;2022-10-16T06:51:16;100787.59;;;14.28;71.91
51313;BME280;37397;53.226;10.400;2022-10-16T06:53:46;100788.91;;;14.27;71.80
51313;BME280;37397;53.226;10.400;2022-10-16T06:56:29;100790.44;;;14.28;71.92
51313;BME280;37397;53.226;10.400;2022-10-16T06:58:57;100791.78;;;14.27;71.73
51313;BME280;37397;53.226;10.400;2022-10-16T07:01:25;100794.63;;;14.27;72.03
51313;BME280;37397;53.226;10.400;2022-10-16T07:03:52;100800.38;;;14.27;72.07
51313;BME280;37397;53.226;10.400;2022-10-16T07:06:22;100816.28;;;14.28;71.94
51313;BME280;37397;53.226;10.400;2022-10-16T07:08:49;100812.88;;;14.23;72.04
51313;BME280;37397;53.226;10.400;2022-10-16T07:11:21;100810.00;;;14.23;71.89
51313;BME280;37397;53.226;10.400;2022-10-16T07:13:49;100820.47;;;14.27;71.96
51313;BME280;37397;53.226;10.400;2022-10-16T07:16:28;100815.25;;;14.25;72.21
51313;BME280;37397;53.226;10.400;2022-10-16T07:18:56;100818.09;;;14.25;72.21
51313;BME280;37397;53.226;10.400;2022-10-16T07:21:29;100815.44;;;14.21;72.25
51313;BME280;37397;53.226;10.400;2022-10-16T07:23:58;100820.16;;;14.25;72.25
51313;BME280;37397;53.226;10.400;2022-10-16T07:26:26;100825.91;;;14.25;72.27
51313;BME280;37397;53.226;10.400;2022-10-16T07:28:53;100829.59;;;14.25;72.39
51313;BME280;37397;53.226;10.400;2022-10-16T07:31:20;100836.09;;;14.26;72.33
51313;BME280;37397;53.226;10.400;2022-10-16T07:33:48;100830.38;;;14.26;72.47
51313;BME280;37397;53.226;10.400;2022-10-16T07:36:16;100837.69;;;14.27;72.30
51313;BME280;37397;53.226;10.400;2022-10-16T07:38:44;100849.19;;;14.27;72.44
51313;BME280;37397;53.226;10.400;2022-10-16T07:41:14;100854.91;;;14.27;72.40
51313;BME280;37397;53.226;10.400;2022-10-16T07:43:48;100848.88;;;14.25;72.30
51313;BME280;37397;53.226;10.400;2022-10-16T07:46:16;100847.59;;;14.26;72.42
51313;BME280;37397;53.226;10.400;2022-10-16T07:48:43;100855.19;;;14.29;72.51
51313;BME280;37397;53.226;10.400;2022-10-16T07:51:16;100863.81;;;14.29;72.48
51313;BME280;37397;53.226;10.400;2022-10-16T07:53:43;100871.13;;;14.30;72.53
51313;BME280;37397;53.226;10.400;2022-10-16T07:56:10;100871.13;;;14.30;72.55
51313;BME280;37397;53.226;10.400;2022-10-16T07:58:38;100877.16;;;14.32;72.68
51313;BME280;37397;53.226;10.400;2022-10-16T08:01:06;100881.56;;;14.33;72.71
51313;BME280;37397;53.226;10.400;2022-10-16T08:03:34;100888.91;;;14.34;72.83
51313;BME280;37397;53.226;10.400;2022-10-16T08:06:01;100883.94;;;14.34;72.86
51313;BME280;37397;53.226;10.400;2022-10-16T08:08:28;100881.06;;;14.34;72.94
51313;BME280;37397;53.226;10.400;2022-10-16T08:10:54;100896.00;;;14.38;72.96
51313;BME280;37397;53.226;10.400;2022-10-16T08:13:21;100889.47;;;14.38;73.17
51313;BME280;37397;53.226;10.400;2022-10-16T08:15:47;100893.41;;;14.40;73.31
51313;BME280;37397;53.226;10.400;2022-10-16T08:18:15;100899.94;;;14.41;73.10
51313;BME280;37397;53.226;10.400;2022-10-16T08:20:42;100906.22;;;14.45;73.60
51313;BME280;37397;53.226;10.400;2022-10-16T08:23:10;100899.22;;;14.46;73.72
51313;BME280;37397;53.226;10.400;2022-10-16T08:25:38;100903.94;;;14.49;73.78
51313;BME280;37397;53.226;10.400;2022-10-16T08:28:06;100912.81;;;14.51;73.62
51313;BME280;37397;53.226;10.400;2022-10-16T08:30:33;100911.81;;;14.54;73.75
51313;BME280;37397;53.226;10.400;2022-10-16T08:33:01;100911.31;;;14.56;73.66
51313;BME280;37397;53.226;10.400;2022-10-16T08:35:28;100900.59;;;14.56;73.65
51313;BME280;37397;53.226;10.400;2022-10-16T08:37:54;100915.06;;;14.62;73.65
51313;BME280;37397;53.226;10.400;2022-10-16T08:40:27;100918.19;;;14.64;73.59
51313;BME280;37397;53.226;10.400;2022-10-16T08:48:54;100923.97;;;14.70;73.74
51313;BME280;37397;53.226;10.400;2022-10-16T08:51:29;100932.91;;;14.72;73.60
51313;BME280;37397;53.226;10.400;2022-10-16T08:54:17;100924.28;;;14.72;73.66
51313;BME280;37397;53.226;10.400;2022-10-16T08:56:47;100932.38;;;14.73;73.83
51313;BME280;37397;53.226;10.400;2022-10-16T08:59:16;100931.38;;;14.76;73.61
51313;BME280;37397;53.226;10.400;2022-10-16T09:01:45;100926.19;;;14.81;73.59
51313;BME280;37397;53.226;10.400;2022-10-16T09:04:46;100930.38;;;14.80;73.83
51313;BME280;37397;53.226;10.400;2022-10-16T09:07:32;100933.50;;;14.82;73.80
51313;BME280;37397;53.226;10.400;2022-10-16T09:10:09;100934.84;;;14.86;73.85
51313;BME280;37397;53.226;10.400;2022-10-16T09:12:49;100948.41;;;14.86;73.67
51313;BME280;37397;53.226;10.400;2022-10-16T09:15:29;100941.66;;;14.89;73.84
51313;BME280;37397;53.226;10.400;2022-10-16T09:18:10;100942.72;;;14.91;73.80
51313;BME280;37397;53.226;10.400;2022-10-16T09:20:51;100941.72;;;14.94;73.99
51313;BME280;37397;53.226;10.400;2022-10-16T09:23:30;100930.75;;;14.99;73.76
51313;BME280;37397;53.226;10.400;2022-10-16T09:25:59;100942.81;;;15.03;73.93
51313;BME280;37397;53.226;10.400;2022-10-16T09:28:26;100937.06;;;15.03;73.89
51313;BME280;37397;53.226;10.400;2022-10-16T09:30:53;100931.88;;;15.07;73.90
51313;BME280;37397;53.226;10.400;2022-10-16T09:33:24;100927.97;;;15.10;73.88
51313;BME280;37397;53.226;10.400;2022-10-16T09:35:54;100941.06;;;15.11;73.91
51313;BME280;37397;53.226;10.400;2022-10-16T09:38:30;100947.06;;;15.13;73.72
51313;BME280;37397;53.226;10.400;2022-10-16T09:41:02;100945.28;;;15.16;73.72
51313;BME280;37397;53.226;10.400;2022-10-16T09:43:46;100947.91;;;15.19;73.69
51313;BME280;37397;53.226;10.400;2022-10-16T09:48:57;100943.25;;;15.22;73.75
51313;BME280;37397;53.226;10.400;2022-10-16T09:51:31;100964.41;;;15.24;73.61
51313;BME280;37397;53.226;10.400;2022-10-16T09:54:10;100970.44;;;15.26;73.61
51313;BME280;37397;53.226;10.400;2022-10-16T09:56:39;100972.31;;;15.29;73.61
51313;BME280;37397;53.226;10.400;2022-10-16T09:59:12;100975.44;;;15.31;73.35
51313;BME280;37397;53.226;10.400;2022-10-16T10:02:09;100969.66;;;15.26;73.29
51313;BME280;37397;53.226;10.400;2022-10-16T10:04:41;100973.63;;;15.34;73.22
51313;BME280;37397;53.226;10.400;2022-10-16T10:07:17;100979.16;;;15.38;73.15
51313;BME280;37397;53.226;10.400;2022-10-16T10:09:45;100983.91;;;15.41;73.11
51313;BME280;37397;53.226;10.400;2022-10-16T10:12:23;100994.88;;;15.42;72.99
51313;BME280;37397;53.226;10.400;2022-10-16T10:14:56;100990.97;;;15.45;72.85
51313;BME280;37397;53.226;10.400;2022-10-16T10:17:26;100994.91;;;15.48;72.83
51313;BME280;37397;53.226;10.400;2022-10-16T10:19:58;100999.63;;;15.51;72.80
51313;BME280;37397;53.226;10.400;2022-10-16T10:22:43;100993.38;;;15.53;72.71
51313;BME280;37397;53.226;10.400;2022-10-16T10:28:17;100995.75;;;15.54;72.71
51313;BME280;37397;53.226;10.400;2022-10-16T10:31:06;100988.97;;;15.57;72.56
51313;BME280;37397;53.226;10.400;2022-10-16T10:33:50;100985.84;;;15.61;72.79
51313;BME280;37397;53.226;10.400;2022-10-16T10:38:59;100997.41;;;15.66;72.65
51313;BME280;37397;53.226;10.400;2022-10-16T10:41:51;101002.34;;;15.66;72.49
51313;BME280;37397;53.226;10.400;2022-10-16T10:47:34;101007.34;;;15.71;72.31
51313;BME280;37397;53.226;10.400;2022-10-16T10:55:39;101007.13;;;15.75;72.06
51313;BME280;37397;53.226;10.400;2022-10-16T11:01:01;101003.78;;;15.82;71.60
51313;BME280;37397;53.226;10.400;2022-10-16T11:04:14;100994.09;;;15.79;71.31
51313;BME280;37397;53.226;10.400;2022-10-16T11:06:48;101006.41;;;15.85;71.48
51313;BME280;37397;53.226;10.400;2022-10-16T11:09:24;101021.09;;;15.88;71.28
51313;BME280;37397;53.226;10.400;2022-10-16T11:12:02;101027.13;;;15.90;71.24
51313;BME280;37397;53.226;10.400;2022-10-16T11:17:40;101031.34;;;15.94;70.62
51313;BME280;37397;53.226;10.400;2022-10-16T11:20:16;101042.59;;;15.98;70.67
51313;BME280;37397;53.226;10.400;2022-10-16T11:22:51;101046.56;;;16.00;70.54
51313;BME280;37397;53.226;10.400;2022-10-16T11:25:30;101030.06;;;16.01;70.49
51313;BME280;37397;53.226;10.400;2022-10-16T11:28:18;101029.53;;;16.02;70.23
51313;BME280;37397;53.226;10.400;2022-10-16T11:31:04;101037.94;;;16.06;70.49
51313;BME280;37397;53.226;10.400;2022-10-16T11:33:45;101054.97;;;16.10;70.25
51313;BME280;37397;53.226;10.400;2022-10-16T11:36:21;101058.13;;;16.12;70.27
51313;BME280;37397;53.226;10.400;2022-10-16T11:41:48;101045.59;;;16.15;70.17
51313;BME280;37397;53.226;10.400;2022-10-16T11:45:17;101052.91;;;16.16;70.02
51313;BME280;37397;53.226;10.400;2022-10-16T11:48:00;101049.00;;;16.19;69.91
51313;BME280;37397;53.226;10.400;2022-10-16T11:50:54;101051.88;;;16.19;69.84
51313;BME280;37397;53.226;10.400;2022-10-16T11:56:04;101062.91;;;16.26;69.75
51313;BME280;37397;53.226;10.400;2022-10-16T11:58:35;101058.97;;;16.29;69.59
51313;BME280;37397;53.226;10.400;2022-10-16T12:04:02;101062.94;;;16.32;69.24
51313;BME280;37397;53.226;10.400;2022-10-16T12:06:40;101076.28;;;16.35;69.41
51313;BME280;37397;53.226;10.400;2022-10-16T12:09:36;101077.06;;;16.35;69.29
51313;BME280;37397;53.226;10.400;2022-10-16T12:12:01;101080.50;;;16.39;69.23
51313;BME280;37397;53.226;10.400;2022-10-16T12:17:00;101070.84;;;16.43;69.23
51313;BME280;37397;53.226;10.400;2022-10-16T12:19:28;101069.81;;;16.46;69.15
51313;BME280;37397;53.226;10.400;2022-10-16T12:21:58;101067.19;;;16.48;69.11
51313;BME280;37397;53.226;10.400;2022-10-16T12:24:37;101080.31;;;16.49;69.23
51313;BME280;37397;53.226;10.400;2022-10-16T12:29:54;101080.81;;;16.53;69.14
51313;BME280;37397;53.226;10.400;2022-10-16T12:32:42;101085.03;;;16.52;69.06
51313;BME280;37397;53.226;10.400;2022-10-16T12:35:26;101092.59;;;16.55;69.18
51313;BME280;37397;53.226;10.400;2022-10-16T12:37:54;101098.16;;;16.58;68.82
51313;BME280;37397;53.226;10.400;2022-10-16T12:40:32;101097.63;;;16.60;68.97
51313;BME280;37397;53.226;10.400;2022-10-16T12:43:12;101096.03;;;16.59;68.88
51313;BME280;37397;53.226;10.400;2022-10-16T12:45:38;101097.38;;;16.64;68.65
51313;BME280;37397;53.226;10.400;2022-10-16T12:48:20;101103.91;;;16.64;68.82
51313;BME280;37397;53.226;10.400;2022-10-16T12:50:48;101098.72;;;16.68;68.81
51313;BME280;37397;53.226;10.400;2022-10-16T12:53:23;101104.47;;;16.68;68.87
51313;BME280;37397;53.226;10.400;2022-10-16T12:56:13;101106.84;;;16.70;68.78
51313;BME280;37397;53.226;10.400;2022-10-16T12:58:55;101112.09;;;16.71;68.73
51313;BME280;37397;53.226;10.400;2022-10-16T13:01:57;101110.50;;;16.70;68.57
51313;BME280;37397;53.226;10.400;2022-10-16T13:07:15;101113.41;;;16.76;68.16
51313;BME280;37397;53.226;10.400;2022-10-16T13:10:25;101115.50;;;16.75;68.18
51313;BME280;37397;53.226;10.400;2022-10-16T13:21:17;101139.63;;;16.84;68.15
51313;BME280;37397;53.226;10.400;2022-10-16T13:29:10;101146.97;;;16.85;68.14
51313;BME280;37397;53.226;10.400;2022-10-16T13:31:38;101147.25;;;16.87;68.21
51313;BME280;37397;53.226;10.400;2022-10-16T13:34:06;101149.13;;;16.90;67.76
51313;BME280;37397;53.226;10.400;2022-10-16T13:36:48;101149.88;;;16.90;67.78
51313;BME280;37397;53.226;10.400;2022-10-16T13:39:25;101165.13;;;16.91;67.77
51313;BME280;37397;53.226;10.400;2022-10-16T13:42:06;101169.56;;;16.92;67.49
51313;BME280;37397;53.226;10.400;2022-10-16T13:44:39;101163.25;;;16.88;67.62
51313;BME280;37397;53.226;10.400;2022-10-16T13:47:15;101166.94;;;16.88;67.35
51313;BME280;37397;53.226;10.400;2022-10-16T13:49:42;101185.81;;;16.95;67.52
51313;BME280;37397;53.226;10.400;2022-10-16T13:52:20;101191.59;;;16.95;67.33
51313;BME280;37397;53.226;10.400;2022-10-16T13:54:47;101172.47;;;16.98;67.14
51313;BME280;37397;53.226;10.400;2022-10-16T13:57:15;101178.50;;;17.00;66.95
51313;BME280;37397;53.226;10.400;2022-10-16T13:59:53;101186.63;;;17.01;66.51
51313;BME280;37397;53.226;10.400;2022-10-16T14:02:25;101186.38;;;16.99;66.39
51313;BME280;37397;53.226;10.400;2022-10-16T14:04:54;101191.63;;;17.01;66.56
51313;BME280;37397;53.226;10.400;2022-10-16T14:07:25;101200.00;;;17.04;66.44